Aviation Digital Data Service (ADDS)

Output produced by METARs form (1825 UTC 16 August 2018)
found at http://www.aviationweather.gov/adds/metars/
 
EHKD 161755Z AUTO 17012KT 9999 FEW035 SCT039 BKN047 16/15 Q1013 REDZ BLU 23013KT 9999 BKN045
TAF EHKD 161627Z 1617/1705 23013KT 9999 -RA OVC035 
     TEMPO 1617/1702 4000 RA SHRA SCT007 SCT030CB BKN050 
     PROB30 
     TEMPO 1617/1702 3000 TSRA SCT006 BKN012 SCT020CB
       
EHDL 161755Z AUTO 31004KT 260V360 9999 NCD 23/14 Q1014 BLU
EHGG 161755Z AUTO 31006KT 270V340 9999 SCT007 BKN023 BKN028 17/15 Q1014 REDZ NOSIG
TAF EHGG 161705Z 1618/1724 24012KT 9999 BKN030 
     BECMG 1618/1621 27005KT 
     BECMG 1623/1702 6000 -RA 
     PROB30 
     TEMPO 1702/1705 4000 RA SHRA BKN012 SCT060CB 
     BECMG 1705/1708 9999 NSW
       
EHEH 161755Z AUTO 31003KT 270V360 9999 FEW053 24/15 Q1014 BLU VRB03KT 9999 FEW045
TAF EHEH 161710Z 1618/1724 28005KT CAVOK 
     TEMPO 1701/1707 4000 RA BR FEW007 SCT010 BKN070 
     PROB30 
     TEMPO 1702/1707 3500 SHRA TSRA SCT007 BKN030 SCT060CB BKN070 
     BECMG 1703/1707 VRB03KT 
     BECMG 1708/1710 33007KT 
     BECMG 1713/1715 29005KT
       
EHGR 161755Z AUTO 31009KT 260V340 9999 BKN350 22/16 Q1014 BLU 28006KT 9999 SCT050
TAF EHGR 161158Z 1613/1701 27008KT 9999 SCT030 
     TEMPO 1621/1701 4000 SHRA RA SCT040CB
       
EHLW 161755Z AUTO 18005KT 9999 BKN041 BKN048 OVC054 17/15 Q1014 BLU RMK R23
TAF EHLW 161158Z 1613/1701 22012KT 9999 BKN030 
     PROB40 
     TEMPO 1614/1618 4000 DZ SCT014 BKN020 
     BECMG 1620/1622 27006KT 
     TEMPO 1700/1701 4000 RA BKN040
       
EHBK 161755Z AUTO 33005KT 9999 NSC 25/15 Q1013 NOSIG
TAF EHBK 161705Z 1618/1724 30005KT CAVOK 
     TEMPO 1702/1707 7000 -RA SCT012 BKN030 
     PROB40 
     TEMPO 1704/1709 4000 RA BKN006
       
EHRD 161755Z AUTO 05004KT 9999 NSC 18/15 Q1014 NOSIG
TAF COR EHRD 161706Z 1618/1724 27008KT 9999 -RA FEW015 BKN025 
     BECMG 1618/1620 6000 RA SCT012 BKN018 
     PROB40 
     TEMPO 1621/1704 4000 SHRA BKN012 SCT060CB 
     BECMG 1702/1705 9999 NSW SCT020 
     BECMG 1718/1721 VRB03KT
       
EHAM 161755Z 36004KT 310V060 9999 FEW022 SCT035 18/14 Q1014 NOSIG
TAF EHAM 161655Z 1618/1724 27008KT 9999 -RA FEW015 BKN025 
     BECMG 1618/1620 6000 RA SCT012 BKN018 
     PROB40 
     TEMPO 1621/1704 4000 SHRA BKN012 SCT060CB 
     BECMG 1702/1705 9999 NSW SCT020 
     BECMG 1718/1721 VRB03KT
       
EHVK 161755Z AUTO 03003KT 9999 BKN370 23/15 Q1014 BLU
TAF EHVK 161158Z 1613/1701 22010KT 9999 SCT030 
     BECMG 1615/1617 29005KT 
     TEMPO 1700/1701 4000 RA BKN040
       
EHWO 161755Z AUTO 32005KT 280V020 9999 BKN300 OVC350 21/17 Q1014 BLU
TAF EHWO 161158Z 1613/1701 23007KT 9999 SCT030 
     TEMPO 1620/1701 4000 SHRA RA SCT030CB